Time;durP1;ratioP1;P1;durP2;ratioP2;P2;SDS_P1;SDS_P2;PMS_P1;PMS_P2;Temp;Humidity;BMP_temperature;BMP_pressure;BME280_temperature;BME280_humidity;BME280_pressure;Samples;Min_cycle;Max_cycle;Signal;HPM_P1;HPM_P2
2023/03/15 00:00:54;;;;;;;1.58;0.40;;;2.40;99.90;;;;;;6336488;22;20083;-86
2023/03/15 00:03:21;;;;;;;1.08;0.20;;;3.20;99.90;;;;;;6336153;22;20026;-87
2023/03/15 00:05:48;;;;;;;1.48;0.40;;;3.70;99.90;;;;;;6338329;22;20037;-87
2023/03/15 00:08:17;;;;;;;1.35;0.30;;;2.20;99.90;;;;;;6337903;22;20514;-87
2023/03/15 00:10:44;;;;;;;0.63;0.30;;;3.00;99.90;;;;;;6335967;22;20375;-87
2023/03/15 00:13:11;;;;;;;2.72;0.98;;;1.30;99.90;;;;;;6338636;22;20006;-87
2023/03/15 00:15:48;;;;;;;0.80;0.20;;;3.00;99.90;;;;;;6336566;22;20396;-87
2023/03/15 00:18:14;;;;;;;1.27;0.30;;;2.20;99.90;;;;;;6337902;22;20019;-87
2023/03/15 00:20:40;;;;;;;1.40;0.43;;;2.10;99.90;;;;;;6337371;22;20018;-87
2023/03/15 00:23:07;;;;;;;1.48;0.40;;;3.50;99.90;;;;;;6336795;22;20018;-87
2023/03/15 00:25:32;;;;;;;2.50;0.35;;;2.30;99.90;;;;;;6337660;22;20030;-87
2023/03/15 00:27:58;;;;;;;5.28;0.45;;;2.50;99.90;;;;;;6338532;22;20014;-87
2023/03/15 00:30:27;;;;;;;2.00;0.30;;;2.10;99.90;;;;;;6339614;22;20018;-87
2023/03/15 00:32:53;;;;;;;0.65;0.30;;;2.70;99.90;;;;;;6337684;22;20029;-87
2023/03/15 00:35:20;;;;;;;4.63;0.28;;;2.40;99.90;;;;;;6339958;22;20065;-87
2023/03/15 00:37:46;;;;;;;1.50;0.30;;;3.20;99.90;;;;;;6337987;22;20015;-88
2023/03/15 00:40:12;;;;;;;1.38;0.22;;;1.90;99.90;;;;;;6339136;22;20018;-87
2023/03/15 00:42:39;;;;;;;3.08;0.50;;;1.90;99.90;;;;;;6338089;22;20046;-87
2023/03/15 00:45:09;;;;;;;1.48;0.20;;;1.90;99.90;;;;;;6338265;22;20080;-87
2023/03/15 00:47:35;;;;;;;1.58;0.30;;;2.60;99.90;;;;;;6339873;22;20093;-85
2023/03/15 00:50:00;;;;;;;0.55;0.30;;;3.00;99.90;;;;;;6312066;22;20418;-87
2023/03/15 00:52:26;;;;;;;0.90;0.28;;;3.10;99.90;;;;;;6338115;22;20019;-86
2023/03/15 00:54:53;;;;;;;1.55;0.20;;;1.70;99.90;;;;;;6339977;22;20026;-87
2023/03/15 00:57:20;;;;;;;2.20;0.38;;;0.70;99.90;;;;;;6338426;22;20010;-87
2023/03/15 00:59:46;;;;;;;2.72;0.30;;;2.70;99.90;;;;;;6337550;22;20019;-87
2023/03/15 01:02:12;;;;;;;6.63;0.70;;;2.80;99.90;;;;;;6338237;22;20059;-87
2023/03/15 01:04:37;;;;;;;3.35;0.60;;;2.60;99.90;;;;;;6337925;22;20091;-86
2023/03/15 01:07:06;;;;;;;7.15;0.52;;;3.40;99.90;;;;;;6339641;22;20037;-86
2023/03/15 01:09:32;;;;;;;6.07;0.57;;;2.20;99.90;;;;;;6339999;22;20086;-87
2023/03/15 01:11:58;;;;;;;2.85;0.45;;;2.20;99.90;;;;;;6337868;22;20022;-87
2023/03/15 01:14:23;;;;;;;1.33;0.30;;;2.30;99.90;;;;;;6339349;22;20352;-87
2023/03/15 01:16:49;;;;;;;2.17;0.50;;;2.10;99.90;;;;;;6337631;22;20049;-87
2023/03/15 01:19:16;;;;;;;1.25;0.40;;;3.50;99.90;;;;;;6338007;22;20071;-87
2023/03/15 01:21:41;;;;;;;1.27;0.57;;;2.40;99.90;;;;;;6339697;22;20007;-87
2023/03/15 01:24:12;;;;;;;3.95;0.40;;;3.80;99.90;;;;;;6337394;22;20019;-87
2023/03/15 01:26:38;;;;;;;0.60;0.20;;;2.40;99.90;;;;;;6339741;22;20026;-87
2023/03/15 01:29:04;;;;;;;4.22;0.63;;;3.30;99.90;;;;;;6336899;22;20019;-87
2023/03/15 01:31:31;;;;;;;4.25;1.15;;;2.70;99.90;;;;;;6339570;22;20018;-87
2023/03/15 01:33:57;;;;;;;1.65;0.68;;;2.50;99.90;;;;;;6339075;22;20017;-87
2023/03/15 01:36:24;;;;;;;0.32;0.20;;;2.50;99.90;;;;;;6338134;22;20021;-87
2023/03/15 01:38:50;;;;;;;5.03;0.52;;;2.30;99.90;;;;;;6339314;22;20468;-86
2023/03/15 01:41:17;;;;;;;4.55;0.52;;;3.70;99.90;;;;;;6339524;22;20019;-87
2023/03/15 01:43:46;;;;;;;5.45;0.40;;;1.30;99.90;;;;;;6337676;22;20022;-87
2023/03/15 01:46:17;;;;;;;3.15;0.40;;;2.70;99.90;;;;;;6339460;22;20027;-86
2023/03/15 01:48:48;;;;;;;5.72;0.57;;;2.50;99.90;;;;;;6311777;22;20058;-86
2023/03/15 01:51:33;;;;;;;3.90;1.17;;;2.40;99.90;;;;;;6337389;22;20084;-87
2023/03/15 01:54:08;;;;;;;13.60;1.02;;;2.40;99.90;;;;;;6337639;22;20322;-86
2023/03/15 01:56:36;;;;;;;2.38;0.60;;;3.50;99.90;;;;;;6339325;22;20019;-86
2023/03/15 01:59:05;;;;;;;5.15;0.50;;;3.20;99.90;;;;;;6338726;22;20025;-86
2023/03/15 02:01:34;;;;;;;4.38;0.50;;;2.60;99.90;;;;;;6337730;22;20007;-86
2023/03/15 02:04:08;;;;;;;3.25;0.60;;;3.30;99.90;;;;;;6337298;22;20046;-86
2023/03/15 02:06:34;;;;;;;5.45;0.88;;;3.20;99.90;;;;;;6338852;22;20444;-86
2023/03/15 02:09:13;;;;;;;3.47;0.40;;;2.60;99.90;;;;;;6337215;22;20060;-86
2023/03/15 02:11:40;;;;;;;4.35;0.60;;;2.30;99.90;;;;;;6339388;22;20011;-86
2023/03/15 02:14:08;;;;;;;3.75;0.40;;;2.30;99.90;;;;;;6337294;22;20014;-86
2023/03/15 02:16:34;;;;;;;6.90;0.40;;;2.70;99.90;;;;;;6339323;22;20081;-86
2023/03/15 02:19:00;;;;;;;7.93;0.63;;;1.80;99.90;;;;;;6337277;22;20050;-87
2023/03/15 02:21:41;;;;;;;5.15;0.57;;;2.40;99.90;;;;;;6337325;22;20011;-86
2023/03/15 02:24:15;;;;;;;5.63;0.70;;;3.20;99.90;;;;;;6336830;22;20029;-86
2023/03/15 02:26:43;;;;;;;4.82;0.80;;;2.50;99.90;;;;;;6337223;22;20064;-86
2023/03/15 02:29:10;;;;;;;7.22;0.60;;;2.70;99.90;;;;;;6338912;22;20018;-86
2023/03/15 02:31:36;;;;;;;6.13;0.80;;;3.60;99.90;;;;;;6339061;22;20093;-86
2023/03/15 02:34:04;;;;;;;5.25;0.82;;;3.90;99.90;;;;;;6337008;22;20063;-86
2023/03/15 02:36:30;;;;;;;8.40;0.60;;;3.60;99.90;;;;;;6338943;22;20015;-86
2023/03/15 02:38:56;;;;;;;3.92;0.50;;;2.50;99.90;;;;;;6339097;22;20083;-86
2023/03/15 02:41:32;;;;;;;9.20;0.68;;;2.90;99.90;;;;;;6337075;22;20071;-87
2023/03/15 02:44:07;;;;;;;8.52;0.82;;;2.40;99.90;;;;;;6337028;22;20037;-86
2023/03/15 02:46:34;;;;;;;8.18;0.63;;;2.40;99.90;;;;;;6338967;22;20080;-86
2023/03/15 02:49:01;;;;;;;7.32;0.82;;;3.50;99.90;;;;;;6338827;22;20006;-86
2023/03/15 02:51:28;;;;;;;1.60;0.43;;;2.30;99.90;;;;;;6310489;22;20019;-86
2023/03/15 02:53:54;;;;;;;3.75;0.70;;;1.30;99.90;;;;;;6337321;22;20053;-86
2023/03/15 02:56:20;;;;;;;6.10;0.57;;;1.60;99.90;;;;;;6337048;22;20018;-87
2023/03/15 02:58:46;;;;;;;4.65;0.50;;;2.30;99.90;;;;;;6336322;22;20010;-88
2023/03/15 03:01:13;;;;;;;5.68;0.57;;;3.20;99.90;;;;;;6336857;22;20468;-87
2023/03/15 03:03:42;;;;;;;4.47;0.70;;;3.30;99.90;;;;;;6338907;22;20089;-87
2023/03/15 03:06:10;;;;;;;5.57;0.65;;;2.10;99.90;;;;;;6336807;22;20342;-86
2023/03/15 03:08:36;;;;;;;3.75;0.70;;;3.30;99.90;;;;;;6338441;22;20030;-86
2023/03/15 03:11:01;;;;;;;5.05;0.55;;;2.00;99.90;;;;;;6310575;22;20341;-86
2023/03/15 03:13:27;;;;;;;4.45;0.40;;;3.20;99.90;;;;;;6338298;22;20099;-86
2023/03/15 03:15:59;;;;;;;2.92;0.40;;;3.00;99.90;;;;;;6336795;22;20030;-86
2023/03/15 03:18:26;;;;;;;2.60;0.40;;;1.90;99.90;;;;;;6338102;22;20080;-86
2023/03/15 03:20:55;;;;;;;3.70;0.45;;;2.50;99.90;;;;;;6336695;22;20015;-86
2023/03/15 03:23:24;;;;;;;5.13;0.40;;;1.80;99.90;;;;;;6338104;22;20026;-86
2023/03/15 03:25:52;;;;;;;2.75;0.32;;;1.80;99.90;;;;;;6338814;22;20046;-86
2023/03/15 03:28:25;;;;;;;5.40;0.60;;;1.70;99.90;;;;;;6336322;22;20023;-86
2023/03/15 03:30:53;;;;;;;1.90;0.40;;;1.60;99.90;;;;;;6336733;22;20019;-86
2023/03/15 03:33:20;;;;;;;5.97;0.50;;;2.80;99.90;;;;;;6310369;22;20015;-86
2023/03/15 03:35:46;;;;;;;6.07;0.40;;;2.00;99.90;;;;;;6336823;22;20015;-86
2023/03/15 03:38:12;;;;;;;2.65;0.47;;;2.30;99.90;;;;;;6336801;22;20011;-86
2023/03/15 03:40:38;;;;;;;5.20;0.63;;;1.50;99.90;;;;;;6336566;22;20050;-86
2023/03/15 03:43:05;;;;;;;3.20;0.40;;;1.60;99.90;;;;;;6338961;22;20010;-87
2023/03/15 03:45:30;;;;;;;1.02;0.20;;;1.10;99.90;;;;;;6338674;22;20022;-86
2023/03/15 03:47:56;;;;;;;2.42;0.30;;;2.70;99.90;;;;;;6338033;22;20440;-86
2023/03/15 03:50:22;;;;;;;2.28;0.60;;;1.50;99.90;;;;;;6337254;22;20015;-87
2023/03/15 03:52:48;;;;;;;2.80;0.50;;;1.30;99.90;;;;;;6336723;22;20011;-87
2023/03/15 03:55:14;;;;;;;6.18;0.65;;;2.20;99.90;;;;;;6336797;22;20018;-87
2023/03/15 03:57:40;;;;;;;2.33;0.40;;;1.40;99.90;;;;;;6338792;22;20015;-87
2023/03/15 04:00:09;;;;;;;1.60;0.40;;;1.40;99.90;;;;;;6338917;22;20050;-87
2023/03/15 04:02:35;;;;;;;0.52;0.20;;;1.40;99.90;;;;;;6337455;22;20009;-87
2023/03/15 04:05:01;;;;;;;2.70;0.22;;;1.60;99.90;;;;;;6338583;22;20030;-87
2023/03/15 04:07:27;;;;;;;0.93;0.30;;;1.20;99.90;;;;;;6339647;22;20437;-86
2023/03/15 04:09:52;;;;;;;0.32;0.20;;;2.10;99.90;;;;;;6340264;22;20022;-87
2023/03/15 04:12:18;;;;;;;1.48;0.35;;;0.80;99.90;;;;;;6340268;22;20468;-87
2023/03/15 04:14:44;;;;;;;3.00;0.20;;;2.60;99.90;;;;;;6338382;22;20023;-87
2023/03/15 04:17:10;;;;;;;2.97;0.40;;;1.50;99.90;;;;;;6340344;22;20302;-87
2023/03/15 04:19:35;;;;;;;0.52;0.22;;;1.20;99.90;;;;;;6339149;22;20010;-87
2023/03/15 04:22:05;;;;;;;2.45;0.40;;;1.60;99.90;;;;;;6312197;22;20329;-87
2023/03/15 04:24:33;;;;;;;4.70;0.60;;;2.50;99.90;;;;;;6338154;22;20023;-87
2023/03/15 04:26:59;;;;;;;3.33;0.40;;;1.00;99.90;;;;;;6338166;22;20099;-88
2023/03/15 04:29:25;;;;;;;5.80;0.38;;;1.40;99.90;;;;;;6338137;22;20392;-87
2023/03/15 04:31:51;;;;;;;1.45;0.40;;;1.20;99.90;;;;;;6338318;22;20042;-87
2023/03/15 04:34:17;;;;;;;1.98;0.40;;;1.60;99.90;;;;;;6338251;22;20341;-87
2023/03/15 04:36:42;;;;;;;3.72;0.47;;;0.60;99.90;;;;;;6338981;22;20115;-87
2023/03/15 04:39:08;;;;;;;3.60;0.43;;;2.10;99.90;;;;;;6338364;22;20046;-87
2023/03/15 04:41:34;;;;;;;2.80;0.30;;;1.10;99.90;;;;;;6338298;22;20050;-87
2023/03/15 04:44:04;;;;;;;1.10;0.60;;;1.00;99.90;;;;;;6338635;22;20019;-87
2023/03/15 04:46:31;;;;;;;2.72;0.60;;;1.00;99.90;;;;;;6338261;22;20015;-86
2023/03/15 04:48:57;;;;;;;0.77;0.30;;;1.90;99.90;;;;;;6338443;22;20508;-86
2023/03/15 04:51:23;;;;;;;1.35;0.30;;;2.20;99.90;;;;;;6338269;22;20034;-86
2023/03/15 04:53:49;;;;;;;2.83;0.35;;;0.90;99.90;;;;;;6339968;22;20014;-86
2023/03/15 04:56:15;;;;;;;2.08;0.32;;;1.60;99.90;;;;;;6337665;22;20057;-86
2023/03/15 04:58:41;;;;;;;0.90;0.30;;;1.00;99.90;;;;;;6337683;22;20022;-86
2023/03/15 05:01:06;;;;;;;1.85;0.52;;;0.60;99.90;;;;;;6337771;22;20011;-86
2023/03/15 05:03:32;;;;;;;0.98;0.30;;;1.20;99.90;;;;;;6339558;22;20441;-87
2023/03/15 05:06:06;;;;;;;2.17;0.30;;;0.60;99.90;;;;;;6337843;22;20022;-86
2023/03/15 05:08:33;;;;;;;1.00;0.25;;;-0.10;99.90;;;;;;6339901;22;20068;-86
2023/03/15 05:10:59;;;;;;;1.58;0.30;;;1.00;99.90;;;;;;6339674;22;20019;-86
2023/03/15 05:13:25;;;;;;;0.50;0.20;;;1.70;99.90;;;;;;6337868;22;20382;-86
2023/03/15 05:15:50;;;;;;;4.15;0.43;;;0.20;99.90;;;;;;6339035;22;20064;-86
2023/03/15 05:18:16;;;;;;;4.60;0.40;;;1.30;99.90;;;;;;6339571;22;20383;-86
2023/03/15 05:20:42;;;;;;;1.23;0.30;;;1.30;99.90;;;;;;6337755;22;20102;-86
2023/03/15 05:23:08;;;;;;;1.92;0.35;;;0.20;99.90;;;;;;6339065;22;20011;-86
2023/03/15 05:25:35;;;;;;;4.15;0.30;;;-0.30;99.90;;;;;;6339373;22;20041;-86
2023/03/15 05:28:03;;;;;;;0.75;0.20;;;1.00;99.90;;;;;;6337690;22;20017;-86
2023/03/15 05:30:29;;;;;;;1.55;0.25;;;0.20;99.90;;;;;;6338681;22;20018;-86
2023/03/15 05:32:56;;;;;;;0.68;0.28;;;1.10;99.90;;;;;;6337661;22;20022;-86
2023/03/15 05:35:25;;;;;;;0.47;0.22;;;0.30;99.90;;;;;;6337829;22;20094;-86
2023/03/15 05:37:57;;;;;;;0.85;0.20;;;-0.40;99.90;;;;;;6337307;22;20078;-86
2023/03/15 05:40:23;;;;;;;0.20;0.20;;;0.00;99.90;;;;;;6337493;22;20585;-86
2023/03/15 05:42:48;;;;;;;0.20;0.17;;;0.70;99.90;;;;;;6337354;22;20015;-87
2023/03/15 05:45:14;;;;;;;1.13;0.40;;;0.00;99.90;;;;;;6338856;22;20397;-86
2023/03/15 05:47:40;;;;;;;0.17;0.10;;;0.10;99.90;;;;;;6337617;22;20054;-87
2023/03/15 05:50:06;;;;;;;2.00;0.25;;;-0.70;99.90;;;;;;6337696;22;20019;-86
2023/03/15 05:52:34;;;;;;;3.10;0.20;;;0.00;99.90;;;;;;6336742;22;20489;-86
2023/03/15 05:55:00;;;;;;;1.00;0.38;;;0.10;99.90;;;;;;6337512;22;20023;-87
2023/03/15 05:57:26;;;;;;;0.75;0.40;;;0.00;99.90;;;;;;6339282;22;20007;-86
2023/03/15 05:59:51;;;;;;;0.45;0.20;;;0.60;99.90;;;;;;6336876;22;20029;-86
2023/03/15 06:02:17;;;;;;;0.73;0.30;;;1.30;99.90;;;;;;6337534;22;20018;-86
2023/03/15 06:04:43;;;;;;;3.80;0.40;;;-0.10;99.90;;;;;;6339058;22;20102;-86
2023/03/15 06:07:09;;;;;;;1.50;0.28;;;1.40;99.90;;;;;;6336659;22;20018;-86
2023/03/15 06:09:35;;;;;;;2.65;0.40;;;0.00;99.90;;;;;;6337175;22;20007;-86
2023/03/15 06:12:01;;;;;;;3.70;0.73;;;1.20;99.90;;;;;;6338582;22;20018;-86
2023/03/15 06:14:26;;;;;;;1.55;0.30;;;-0.70;99.90;;;;;;6337674;22;20019;-85
2023/03/15 06:16:52;;;;;;;0.98;0.30;;;0.00;99.90;;;;;;6339169;22;20244;-85
2023/03/15 06:19:20;;;;;;;1.17;0.30;;;0.40;99.90;;;;;;6337548;22;20014;-86
2023/03/15 06:21:46;;;;;;;0.68;0.25;;;1.20;99.90;;;;;;6338822;22;20445;-85
2023/03/15 06:24:12;;;;;;;1.48;0.30;;;1.60;99.90;;;;;;6336678;22;20015;-86
2023/03/15 06:26:38;;;;;;;0.40;0.30;;;1.30;99.90;;;;;;6338007;22;20067;-86
2023/03/15 06:29:04;;;;;;;1.38;0.30;;;1.10;99.90;;;;;;6336839;22;20352;-86
2023/03/15 06:31:30;;;;;;;1.15;0.30;;;-0.10;99.90;;;;;;6339605;22;20098;-86
2023/03/15 06:33:56;;;;;;;2.60;0.80;;;0.00;99.90;;;;;;6338870;22;20079;-86
2023/03/15 06:36:23;;;;;;;1.00;0.30;;;-0.10;99.90;;;;;;6336913;22;20015;-85
2023/03/15 06:38:49;;;;;;;2.03;0.60;;;1.30;99.90;;;;;;6337118;22;20033;-85
2023/03/15 06:41:16;;;;;;;1.05;0.38;;;0.00;99.90;;;;;;6336950;22;20063;-86
2023/03/15 06:43:42;;;;;;;1.02;0.40;;;0.30;99.90;;;;;;6338385;22;20472;-86
2023/03/15 06:46:08;;;;;;;0.20;0.20;;;0.00;99.90;;;;;;6336955;22;20014;-86
2023/03/15 06:48:33;;;;;;;3.83;0.32;;;-0.80;99.90;;;;;;6336808;22;20350;-85
2023/03/15 06:50:59;;;;;;;1.15;0.30;;;-0.10;99.90;;;;;;6338482;22;20014;-85
2023/03/15 06:53:25;;;;;;;1.65;0.20;;;0.00;99.90;;;;;;6338564;22;20089;-86
2023/03/15 06:55:51;;;;;;;2.25;0.52;;;1.40;99.90;;;;;;6336858;22;20057;-86
2023/03/15 06:58:16;;;;;;;2.03;0.52;;;-0.30;99.90;;;;;;6336358;22;20341;-84
2023/03/15 07:00:47;;;;;;;0.57;0.32;;;0.10;99.90;;;;;;6338027;22;20079;-87
2023/03/15 07:03:12;;;;;;;1.35;0.22;;;1.10;99.90;;;;;;6337309;22;20123;-87
2023/03/15 07:05:38;;;;;;;3.30;0.40;;;0.20;99.90;;;;;;6337047;22;20022;-86
2023/03/15 07:08:04;;;;;;;0.85;0.40;;;1.40;99.90;;;;;;6338664;22;20014;-85
2023/03/15 07:10:30;;;;;;;1.77;0.52;;;0.50;99.90;;;;;;6337321;22;20018;-85
2023/03/15 07:12:56;;;;;;;0.57;0.28;;;0.60;99.90;;;;;;6336542;22;20068;-84
2023/03/15 07:15:21;;;;;;;1.45;0.30;;;1.00;99.90;;;;;;6338603;22;20010;-84
2023/03/15 07:17:47;;;;;;;2.90;1.05;;;0.80;99.90;;;;;;6336980;22;20015;-84
2023/03/15 07:20:13;;;;;;;1.73;0.30;;;2.00;99.90;;;;;;6336494;22;20022;-84
2023/03/15 07:22:38;;;;;;;3.03;0.40;;;2.20;99.90;;;;;;6338677;22;20006;-85
2023/03/15 07:25:06;;;;;;;1.42;0.40;;;0.70;99.90;;;;;;6338151;22;20026;-85
2023/03/15 07:27:32;;;;;;;1.95;0.30;;;1.20;99.90;;;;;;6337516;22;20015;-84
2023/03/15 07:29:59;;;;;;;4.22;0.52;;;1.30;99.90;;;;;;6336209;22;20019;-85
2023/03/15 07:32:25;;;;;;;1.67;0.75;;;1.90;99.90;;;;;;6338899;22;20049;-85
2023/03/15 07:34:51;;;;;;;0.85;0.28;;;2.70;99.90;;;;;;6338830;22;20433;-85
2023/03/15 07:37:17;;;;;;;1.15;0.32;;;2.70;99.90;;;;;;6336742;22;20054;-85
2023/03/15 07:39:45;;;;;;;1.35;0.50;;;1.60;99.90;;;;;;6340031;22;20390;-84
2023/03/15 07:42:11;;;;;;;2.05;0.43;;;1.70;99.90;;;;;;6312566;22;20022;-85
2023/03/15 07:44:36;;;;;;;0.63;0.30;;;2.00;99.90;;;;;;6338650;22;20019;-85
2023/03/15 07:47:02;;;;;;;1.60;0.40;;;2.00;99.90;;;;;;6340595;22;20018;-84
2023/03/15 07:49:29;;;;;;;1.58;0.52;;;2.20;99.90;;;;;;6338992;22;20018;-86
2023/03/15 07:51:55;;;;;;;3.38;0.30;;;3.20;99.90;;;;;;6340324;22;20010;-83
2023/03/15 07:54:21;;;;;;;2.33;0.60;;;2.40;99.90;;;;;;6340672;22;20015;-85
2023/03/15 07:56:46;;;;;;;3.63;0.40;;;2.50;99.90;;;;;;6340863;22;20380;-84
2023/03/15 07:59:12;;;;;;;1.55;0.55;;;2.70;99.90;;;;;;6337925;22;20022;-84
2023/03/15 08:01:38;;;;;;;2.05;0.52;;;4.00;99.90;;;;;;6339957;22;20015;-82
2023/03/15 08:04:04;;;;;;;3.97;0.70;;;2.30;99.90;;;;;;6338753;22;20079;-84
2023/03/15 08:06:30;;;;;;;5.07;0.82;;;3.10;99.90;;;;;;6339984;22;20021;-85
2023/03/15 08:08:56;;;;;;;2.90;0.68;;;4.40;99.90;;;;;;6338748;22;20015;-85
2023/03/15 08:11:22;;;;;;;3.78;0.50;;;3.80;99.90;;;;;;6338619;22;20049;-85
2023/03/15 08:13:48;;;;;;;4.60;0.80;;;3.50;99.90;;;;;;6339078;22;20015;-85
2023/03/15 08:16:14;;;;;;;2.45;0.50;;;3.10;99.90;;;;;;6340327;22;20026;-86
2023/03/15 08:18:39;;;;;;;4.10;0.60;;;3.80;99.90;;;;;;6338745;22;20015;-85
2023/03/15 08:21:05;;;;;;;5.20;0.90;;;3.00;99.90;;;;;;6338521;22;20034;-84
2023/03/15 08:23:31;;;;;;;4.75;0.50;;;2.80;99.90;;;;;;6337840;22;20015;-84
2023/03/15 08:25:57;;;;;;;4.55;0.60;;;3.40;99.90;;;;;;6340111;22;20079;-85
2023/03/15 08:28:22;;;;;;;4.85;0.80;;;4.20;99.90;;;;;;6338512;22;20396;-84
2023/03/15 08:30:51;;;;;;;3.78;0.80;;;5.10;99.90;;;;;;6337955;22;20437;-85
2023/03/15 08:33:17;;;;;;;4.47;0.73;;;4.40;99.90;;;;;;6338452;22;20018;-85
2023/03/15 08:35:42;;;;;;;5.63;0.47;;;4.50;99.90;;;;;;6339762;22;20067;-85
2023/03/15 08:38:08;;;;;;;6.30;0.70;;;4.60;99.90;;;;;;6337968;22;20007;-84
2023/03/15 08:40:35;;;;;;;3.75;0.52;;;5.00;99.90;;;;;;6339569;22;20037;-84
2023/03/15 08:43:00;;;;;;;4.80;0.50;;;6.00;99.90;;;;;;6337456;22;20007;-81
2023/03/15 08:45:26;;;;;;;7.43;2.17;;;5.10;99.90;;;;;;6338032;22;20040;-81
2023/03/15 08:47:59;;;;;;;4.28;0.40;;;5.10;99.90;;;;;;6340028;22;20485;-84
2023/03/15 08:50:26;;;;;;;4.07;0.65;;;5.20;99.90;;;;;;6339262;22;20015;-86
2023/03/15 08:52:52;;;;;;;3.50;0.95;;;5.20;99.90;;;;;;6337981;22;20049;-84
2023/03/15 08:55:19;;;;;;;4.47;0.47;;;5.40;99.90;;;;;;6338201;22;20018;-84
2023/03/15 08:57:45;;;;;;;9.18;0.75;;;6.30;99.90;;;;;;6312417;22;20011;-84
2023/03/15 09:00:19;;;;;;;3.70;0.47;;;6.00;99.90;;;;;;6338019;22;20402;-85
2023/03/15 09:02:47;;;;;;;3.67;0.50;;;5.80;99.90;;;;;;6339926;22;20011;-85
2023/03/15 09:05:14;;;;;;;2.83;0.43;;;5.70;99.90;;;;;;6311883;22;20019;-83
2023/03/15 09:07:41;;;;;;;3.05;0.40;;;6.00;99.90;;;;;;6339888;22;20325;-83
2023/03/15 09:10:09;;;;;;;3.75;0.57;;;6.50;99.90;;;;;;6338190;22;20460;-85
2023/03/15 09:12:34;;;;;;;2.53;0.75;;;6.20;99.90;;;;;;6339780;22;20333;-85
2023/03/15 09:15:00;;;;;;;3.83;0.40;;;6.30;99.90;;;;;;6338272;22;20022;-85
2023/03/15 09:17:26;;;;;;;2.28;0.40;;;6.40;99.90;;;;;;6338056;22;20019;-86
2023/03/15 09:19:52;;;;;;;2.75;0.40;;;6.60;99.90;;;;;;6339624;22;20082;-85
2023/03/15 09:22:18;;;;;;;1.98;0.32;;;7.50;99.90;;;;;;6338197;22;20026;-86
2023/03/15 09:24:43;;;;;;;4.50;0.60;;;6.60;99.90;;;;;;6337808;22;20015;-85
2023/03/15 09:27:10;;;;;;;1.27;0.30;;;6.70;99.90;;;;;;6337608;22;20026;-85
2023/03/15 09:29:36;;;;;;;1.73;0.40;;;6.90;99.90;;;;;;6337619;22;20015;-85
2023/03/15 09:32:02;;;;;;;1.85;0.40;;;6.90;99.90;;;;;;6337682;22;20022;-85
2023/03/15 09:34:28;;;;;;;5.90;0.40;;;7.00;99.90;;;;;;6339920;22;20038;-85
2023/03/15 09:36:57;;;;;;;2.83;0.50;;;7.20;99.90;;;;;;6339680;22;20026;-84
2023/03/15 09:39:23;;;;;;;5.53;1.42;;;7.20;99.90;;;;;;6339392;22;20333;-85
2023/03/15 09:41:53;;;;;;;6.15;0.60;;;7.60;99.90;;;;;;6339662;22;20021;-85
2023/03/15 09:44:47;;;;;;;6.80;0.63;;;7.50;99.90;;;;;;6337492;22;20022;-85
2023/03/15 09:47:24;;;;;;;4.95;0.73;;;8.10;99.90;;;;;;6339322;22;20023;-86
2023/03/15 09:50:02;;;;;;;6.93;0.50;;;7.60;99.90;;;;;;6339656;22;20018;-85
2023/03/15 09:52:44;;;;;;;2.40;0.40;;;7.70;99.90;;;;;;6337978;22;20386;-85
2023/03/15 09:55:19;;;;;;;2.10;0.45;;;7.70;99.90;;;;;;6339439;22;20037;-85
2023/03/15 09:58:06;;;;;;;1.90;0.50;;;7.90;99.90;;;;;;6339272;22;20018;-85
2023/03/15 10:00:47;;;;;;;2.83;0.40;;;7.90;99.90;;;;;;6337877;22;20075;-85
2023/03/15 10:03:29;;;;;;;4.70;0.40;;;8.00;99.90;;;;;;6339334;22;20023;-85
2023/03/15 10:05:59;;;;;;;4.45;0.38;;;8.10;99.90;;;;;;6339489;22;20011;-85
2023/03/15 10:08:25;;;;;;;4.40;0.82;;;8.10;99.90;;;;;;6336986;22;20457;-85
2023/03/15 10:11:06;;;;;;;2.50;0.60;;;8.20;99.90;;;;;;6337347;22;20105;-85
2023/03/15 10:13:38;;;;;;;1.45;0.30;;;8.30;99.90;;;;;;6337281;22;20019;-85
2023/03/15 10:16:34;;;;;;;2.13;0.35;;;8.40;99.90;;;;;;6338957;22;20079;-85
2023/03/15 10:19:12;;;;;;;1.73;0.40;;;8.40;99.90;;;;;;6339250;22;20015;-85
2023/03/15 10:21:48;;;;;;;6.28;0.80;;;8.60;99.90;;;;;;6337307;22;20014;-85
2023/03/15 10:24:27;;;;;;;2.63;0.40;;;8.70;99.90;;;;;;6337306;22;20061;-86
2023/03/15 10:26:53;;;;;;;3.47;0.50;;;8.80;99.90;;;;;;6339361;22;20476;-85
2023/03/15 10:29:21;;;;;;;3.78;0.50;;;8.70;99.90;;;;;;6338891;22;20011;-84
2023/03/15 10:31:48;;;;;;;3.40;0.50;;;8.90;99.90;;;;;;6337407;22;20041;-86
2023/03/15 10:34:15;;;;;;;4.03;0.50;;;8.90;99.90;;;;;;6339419;22;20011;-85
2023/03/15 10:36:48;;;;;;;0.30;0.20;;;9.00;99.90;;;;;;6338725;22;20018;-85
2023/03/15 10:39:15;;;;;;;3.88;0.50;;;8.80;99.90;;;;;;6337361;22;20018;-85
2023/03/15 10:41:49;;;;;;;8.15;0.70;;;8.90;99.90;;;;;;6338993;22;20086;-85
2023/03/15 10:44:23;;;;;;;2.05;0.40;;;8.70;99.90;;;;;;6337724;22;20014;-85
2023/03/15 10:47:10;;;;;;;4.97;0.35;;;8.50;99.90;;;;;;6337504;22;20015;-85
2023/03/15 10:49:38;;;;;;;3.97;0.45;;;8.50;99.90;;;;;;6338760;22;20018;-85
2023/03/15 10:52:05;;;;;;;4.40;0.60;;;8.70;99.90;;;;;;6337236;22;20021;-85
2023/03/15 10:54:32;;;;;;;7.55;0.45;;;8.50;99.90;;;;;;6337001;22;20018;-85
2023/03/15 10:57:13;;;;;;;3.50;0.40;;;8.40;99.90;;;;;;6337708;22;20026;-85
2023/03/15 11:00:05;;;;;;;3.70;0.60;;;8.30;99.90;;;;;;6336915;22;20020;-84
2023/03/15 11:02:31;;;;;;;4.50;0.57;;;8.30;99.90;;;;;;6338692;22;20014;-85
2023/03/15 11:05:11;;;;;;;4.00;0.52;;;8.30;99.90;;;;;;6337087;22;20022;-85
2023/03/15 11:07:37;;;;;;;4.70;0.60;;;8.20;99.90;;;;;;6336889;22;20021;-85
2023/03/15 11:10:05;;;;;;;1.73;0.47;;;8.40;99.90;;;;;;6338866;22;20044;-85
2023/03/15 11:12:33;;;;;;;2.13;0.32;;;8.40;99.90;;;;;;6337026;22;20011;-85
2023/03/15 11:15:12;;;;;;;3.42;0.70;;;8.40;99.90;;;;;;6337459;22;20098;-85
2023/03/15 11:17:48;;;;;;;4.00;0.80;;;8.50;99.90;;;;;;6337567;22;20015;-85
2023/03/15 11:20:29;;;;;;;2.00;0.50;;;8.70;99.90;;;;;;6339042;22;20085;-85
2023/03/15 11:22:56;;;;;;;1.20;0.40;;;9.00;99.90;;;;;;6310789;22;20088;-85
2023/03/15 11:25:32;;;;;;;0.43;0.30;;;8.80;99.90;;;;;;6336825;22;20456;-87
2023/03/15 11:27:58;;;;;;;4.00;0.63;;;9.20;99.90;;;;;;6336964;22;20051;-87
2023/03/15 11:30:30;;;;;;;2.75;1.20;;;9.40;99.90;;;;;;6338454;22;20015;-85
2023/03/15 11:33:05;;;;;;;3.88;0.68;;;9.00;99.60;;;;;;6338729;22;20076;-86
2023/03/15 11:35:48;;;;;;;4.70;0.65;;;9.40;99.80;;;;;;6339027;22;20110;-85
2023/03/15 11:38:24;;;;;;;3.60;0.43;;;9.20;98.60;;;;;;6336813;22;20049;-86
2023/03/15 11:40:57;;;;;;;1.85;0.30;;;9.60;99.30;;;;;;6311018;22;20390;-85
2023/03/15 11:43:55;;;;;;;2.03;0.30;;;9.70;98.70;;;;;;6336880;22;20092;-85
2023/03/15 11:46:30;;;;;;;3.42;0.30;;;9.70;99.40;;;;;;6336652;22;20019;-86
2023/03/15 11:49:12;;;;;;;1.92;0.32;;;9.90;99.00;;;;;;6337130;22;20053;-86
2023/03/15 11:51:38;;;;;;;2.65;0.30;;;10.00;99.90;;;;;;6337122;22;20356;-86
2023/03/15 11:54:12;;;;;;;0.95;0.40;;;10.00;98.80;;;;;;6338295;22;20115;-85
2023/03/15 11:56:48;;;;;;;1.17;0.30;;;9.90;98.40;;;;;;6336860;22;20024;-86
2023/03/15 11:59:36;;;;;;;0.90;0.30;;;10.00;98.20;;;;;;6336469;22;20017;-85
2023/03/15 12:02:08;;;;;;;1.10;0.40;;;10.10;99.70;;;;;;6336548;22;20099;-85
2023/03/15 12:04:34;;;;;;;1.95;0.40;;;10.40;98.90;;;;;;6338439;22;20018;-86
2023/03/15 12:07:06;;;;;;;2.28;0.50;;;10.50;98.20;;;;;;6336964;22;20337;-86
2023/03/15 12:09:31;;;;;;;1.98;0.28;;;10.60;97.90;;;;;;6336718;22;20426;-86
2023/03/15 12:12:04;;;;;;;1.58;0.30;;;10.50;97.00;;;;;;6338589;22;20068;-86
2023/03/15 12:14:34;;;;;;;;;;;10.60;97.50;;;;;;6337217;22;20456;-86
2023/03/15 12:17:34;;;;;;;1.48;0.35;;;10.60;96.50;;;;;;6336504;22;19915;-86
2023/03/15 12:20:10;;;;;;;2.85;0.40;;;10.70;96.30;;;;;;6336341;22;20026;-86
2023/03/15 12:22:47;;;;;;;5.80;0.50;;;10.90;96.20;;;;;;6336806;22;20022;-85
2023/03/15 12:25:21;;;;;;;2.35;0.40;;;10.80;95.70;;;;;;6337807;22;20033;-86
2023/03/15 12:27:54;;;;;;;1.52;0.38;;;10.70;95.80;;;;;;6338280;22;20019;-85
2023/03/15 12:30:27;;;;;;;3.20;0.40;;;10.70;94.70;;;;;;6339609;22;20074;-85
2023/03/15 12:32:54;;;;;;;3.28;0.40;;;10.80;95.30;;;;;;6340014;22;20461;-85
2023/03/15 12:35:23;;;;;;;2.35;0.57;;;10.80;95.90;;;;;;6339756;22;20022;-85
2023/03/15 12:37:52;;;;;;;2.05;0.60;;;11.00;95.50;;;;;;6339623;22;20018;-85
2023/03/15 12:40:19;;;;;;;1.88;0.40;;;11.00;96.00;;;;;;6340234;22;20045;-86
2023/03/15 12:42:47;;;;;;;4.47;0.47;;;11.10;94.70;;;;;;6312450;22;20018;-86
2023/03/15 12:45:16;;;;;;;1.73;0.30;;;11.10;94.40;;;;;;6338089;22;20015;-86
2023/03/15 12:48:11;;;;;;;1.52;0.30;;;11.10;94.10;;;;;;6339828;22;20054;-86
2023/03/15 12:50:43;;;;;;;3.45;0.60;;;11.20;93.70;;;;;;6339647;22;20036;-86
2023/03/15 12:53:30;;;;;;;2.38;0.43;;;11.30;93.60;;;;;;6338178;22;20011;-85
2023/03/15 12:56:10;;;;;;;3.60;0.32;;;11.20;93.10;;;;;;6340409;22;20345;-85
2023/03/15 12:58:38;;;;;;;2.88;0.30;;;11.20;93.00;;;;;;6339833;22;20014;-86
2023/03/15 13:01:06;;;;;;;2.90;0.30;;;11.20;94.10;;;;;;6338146;22;20018;-86
2023/03/15 13:03:35;;;;;;;2.83;0.40;;;11.20;93.50;;;;;;6337948;22;20064;-85